Time;durP1;ratioP1;P1;durP2;ratioP2;P2;SDS_P1;SDS_P2;PMS_P1;PMS_P2;Temp;Humidity;BMP_temperature;BMP_pressure;BME280_temperature;BME280_humidity;BME280_pressure;Samples;Min_cycle;Max_cycle;Signal;HPM_P1;HPM_P2
2023/03/30 00:00:41;;;;;;;38.35;29.23;;;10.80;99.90;;;;;;5024025;28;21196;-77
2023/03/30 00:03:08;;;;;;;36.63;28.02;;;10.70;99.90;;;;;;5022411;28;20978;-76
2023/03/30 00:05:34;;;;;;;39.55;28.83;;;10.70;99.90;;;;;;5022742;28;20922;-76
2023/03/30 00:08:01;;;;;;;36.95;28.25;;;10.80;99.90;;;;;;5023789;28;20534;-77
2023/03/30 00:10:28;;;;;;;40.45;29.65;;;10.80;99.90;;;;;;5023301;28;20460;-76
2023/03/30 00:12:54;;;;;;;39.53;29.03;;;10.80;99.90;;;;;;5021996;28;20963;-77
2023/03/30 00:15:21;;;;;;;40.97;29.53;;;10.80;99.90;;;;;;5024548;28;20873;-76
2023/03/30 00:17:47;;;;;;;42.92;29.88;;;10.80;99.90;;;;;;5022390;28;20409;-76
2023/03/30 00:20:14;;;;;;;38.85;29.58;;;10.80;99.90;;;;;;5015187;28;20401;-76
2023/03/30 00:22:40;;;;;;;40.25;30.20;;;10.80;99.90;;;;;;5016127;28;20808;-76
2023/03/30 00:25:11;;;;;;;41.00;29.38;;;10.80;99.90;;;;;;5015207;28;20423;-76
2023/03/30 00:27:38;;;;;;;43.05;30.00;;;10.80;99.90;;;;;;5021750;28;20889;-76
2023/03/30 00:30:06;;;;;;;41.72;29.15;;;10.80;99.90;;;;;;5022550;28;20782;-77
2023/03/30 00:32:33;;;;;;;41.53;29.15;;;10.80;99.90;;;;;;5022924;28;20406;-77
2023/03/30 00:34:59;;;;;;;40.40;29.70;;;10.80;99.90;;;;;;5024469;28;20487;-77
2023/03/30 00:37:26;;;;;;;39.92;28.80;;;10.80;99.90;;;;;;4993415;28;20411;-76
2023/03/30 00:39:52;;;;;;;41.28;28.85;;;10.70;99.90;;;;;;5024364;28;20404;-76
2023/03/30 00:42:20;;;;;;;40.27;28.77;;;10.80;99.90;;;;;;5024496;28;20479;-76
2023/03/30 00:45:25;;;;;;;38.10;28.13;;;10.70;99.90;;;;;;5023425;28;20487;-76
2023/03/30 00:48:02;;;;;;;37.08;27.15;;;10.80;99.90;;;;;;4982738;28;20500;-76
2023/03/30 00:50:33;;;;;;;38.78;27.85;;;10.80;99.90;;;;;;4996239;28;20413;-76
2023/03/30 00:53:05;;;;;;;36.00;26.53;;;10.80;99.90;;;;;;5004662;28;20438;-77
2023/03/30 00:55:32;;;;;;;36.60;27.13;;;10.80;99.90;;;;;;4997046;28;20411;-76
2023/03/30 00:57:59;;;;;;;35.17;26.67;;;10.70;99.90;;;;;;5004562;28;20791;-76
2023/03/30 01:00:24;;;;;;;34.35;25.63;;;10.80;99.90;;;;;;5005087;28;20513;-76
2023/03/30 01:02:57;;;;;;;31.42;24.08;;;10.80;99.90;;;;;;5005946;28;20527;-76
2023/03/30 01:05:24;;;;;;;33.40;23.73;;;10.80;99.90;;;;;;4995866;28;20413;-76
2023/03/30 01:07:50;;;;;;;31.17;23.08;;;10.80;99.90;;;;;;5004067;28;20408;-77
2023/03/30 01:10:16;;;;;;;29.52;21.67;;;10.80;99.90;;;;;;4987837;28;20537;-76
2023/03/30 01:12:42;;;;;;;27.05;21.40;;;10.80;99.90;;;;;;4987173;28;20938;-76
2023/03/30 01:15:09;;;;;;;28.43;21.33;;;10.90;99.90;;;;;;5004306;28;20409;-76
2023/03/30 01:17:48;;;;;;;25.95;20.75;;;10.90;99.90;;;;;;5004535;28;20446;-77
2023/03/30 01:20:33;;;;;;;26.93;20.63;;;11.00;99.90;;;;;;5003972;28;20428;-77
2023/03/30 01:23:18;;;;;;;25.58;20.02;;;10.90;99.90;;;;;;5005625;28;21197;-75
2023/03/30 01:26:02;;;;;;;26.40;19.83;;;11.00;99.90;;;;;;5005262;28;20413;-76
2023/03/30 01:28:50;;;;;;;23.58;18.65;;;11.00;99.90;;;;;;5004180;28;20455;-77
2023/03/30 01:31:53;;;;;;;24.48;19.45;;;11.00;99.90;;;;;;4994952;28;20904;-76
2023/03/30 01:34:40;;;;;;;25.42;19.63;;;11.00;99.90;;;;;;5004710;28;20421;-77
2023/03/30 01:37:24;;;;;;;26.00;20.02;;;11.00;99.90;;;;;;5004375;28;20649;-76
2023/03/30 01:40:08;;;;;;;27.63;20.10;;;11.00;99.90;;;;;;5004968;28;20523;-76
2023/03/30 01:42:58;;;;;;;25.70;19.05;;;10.90;99.90;;;;;;4994990;28;20444;-76
2023/03/30 01:45:41;;;;;;;25.77;19.20;;;11.00;99.90;;;;;;5005301;28;20420;-76
2023/03/30 01:48:16;;;;;;;26.58;18.83;;;10.90;99.90;;;;;;5003695;28;20421;-76
2023/03/30 01:50:44;;;;;;;22.45;18.27;;;10.90;99.90;;;;;;5004711;28;20420;-76
2023/03/30 01:53:13;;;;;;;24.05;17.55;;;10.90;99.90;;;;;;5006689;28;20742;-76
2023/03/30 01:56:02;;;;;;;21.15;16.80;;;10.90;99.90;;;;;;5007221;28;20421;-77
2023/03/30 01:58:37;;;;;;;22.95;16.88;;;10.90;99.90;;;;;;5006700;28;20874;-76
2023/03/30 02:01:05;;;;;;;21.10;15.70;;;10.90;99.90;;;;;;5006083;28;20803;-77
2023/03/30 02:03:35;;;;;;;21.88;15.48;;;10.90;99.90;;;;;;5004577;28;20934;-76
2023/03/30 02:06:13;;;;;;;18.60;14.30;;;10.90;99.90;;;;;;4989233;28;20466;-77
2023/03/30 02:08:41;;;;;;;20.42;14.45;;;10.90;99.90;;;;;;5005075;28;20413;-77
2023/03/30 02:11:06;;;;;;;17.90;13.88;;;11.00;99.90;;;;;;5005258;28;20429;-76
2023/03/30 02:13:34;;;;;;;18.97;13.23;;;11.00;99.90;;;;;;5005284;28;21050;-77
2023/03/30 02:16:12;;;;;;;14.90;11.43;;;11.00;99.90;;;;;;5008175;28;20410;-78
2023/03/30 02:18:38;;;;;;;16.05;11.15;;;11.00;99.90;;;;;;5096202;28;20772;-76
2023/03/30 02:21:04;;;;;;;16.13;11.02;;;11.00;99.90;;;;;;5024586;28;20411;-77
2023/03/30 02:23:35;;;;;;;14.13;10.33;;;11.00;99.90;;;;;;5008942;28;20416;-76
2023/03/30 02:26:01;;;;;;;15.88;10.73;;;11.00;99.90;;;;;;5012093;28;20453;-77
2023/03/30 02:28:27;;;;;;;14.93;10.68;;;11.00;99.90;;;;;;5009629;28;20413;-77
2023/03/30 02:30:53;;;;;;;14.55;10.13;;;11.00;99.90;;;;;;5011081;28;20412;-76
2023/03/30 02:33:39;;;;;;;16.25;10.18;;;11.00;99.90;;;;;;5009779;28;20429;-76
2023/03/30 02:36:26;;;;;;;15.85;9.20;;;11.00;99.90;;;;;;5007240;28;20397;-77
2023/03/30 02:39:32;;;;;;;14.52;9.13;;;11.10;99.90;;;;;;5009881;28;20424;-76
2023/03/30 02:42:44;;;;;;;13.23;7.90;;;11.00;99.90;;;;;;5010462;28;20512;-76
2023/03/30 02:45:14;;;;;;;11.60;7.80;;;11.00;99.90;;;;;;4988740;28;20421;-76
2023/03/30 02:47:47;;;;;;;12.18;7.43;;;11.00;99.90;;;;;;5009940;28;20995;-77
2023/03/30 02:50:27;;;;;;;10.77;6.80;;;11.10;99.90;;;;;;5006653;28;20433;-76
2023/03/30 02:53:13;;;;;;;11.35;7.20;;;11.10;99.90;;;;;;5006905;28;20510;-77
2023/03/30 02:56:08;;;;;;;8.77;5.88;;;11.10;99.90;;;;;;5000491;28;20431;-77
2023/03/30 02:58:46;;;;;;;8.70;6.20;;;11.10;99.90;;;;;;5006956;28;20414;-77
2023/03/30 03:01:21;;;;;;;11.38;6.18;;;11.20;99.90;;;;;;5005877;28;20504;-76
2023/03/30 03:03:49;;;;;;;10.38;5.72;;;11.20;99.90;;;;;;5007987;28;20421;-77
2023/03/30 03:06:16;;;;;;;8.48;5.57;;;11.20;99.90;;;;;;5013296;28;20898;-77
2023/03/30 03:08:46;;;;;;;10.15;5.53;;;11.20;99.90;;;;;;5006738;28;21119;-76
2023/03/30 03:11:12;;;;;;;9.50;5.43;;;11.30;99.90;;;;;;5006202;28;20421;-76
2023/03/30 03:13:37;;;;;;;10.57;5.60;;;11.30;99.90;;;;;;5006197;28;20425;-77
2023/03/30 03:16:05;;;;;;;8.40;4.97;;;11.30;99.90;;;;;;5006640;28;20433;-76
2023/03/30 03:18:31;;;;;;;8.95;5.20;;;11.40;99.90;;;;;;5007063;28;20493;-76
2023/03/30 03:20:57;;;;;;;9.18;5.07;;;11.40;99.90;;;;;;5005840;28;20843;-77
2023/03/30 03:23:23;;;;;;;10.17;5.40;;;11.40;99.90;;;;;;5004236;28;20951;-77
2023/03/30 03:25:49;;;;;;;9.85;5.35;;;11.40;99.90;;;;;;5005857;28;20452;-77
2023/03/30 03:28:14;;;;;;;12.77;6.00;;;11.40;99.90;;;;;;5006253;28;20412;-76
2023/03/30 03:30:40;;;;;;;10.17;5.43;;;11.40;99.90;;;;;;4988198;28;20479;-77
2023/03/30 03:33:06;;;;;;;9.80;5.80;;;11.40;99.90;;;;;;5006398;28;20424;-76
2023/03/30 03:35:32;;;;;;;7.53;5.10;;;11.40;99.90;;;;;;4989388;28;20417;-77
2023/03/30 03:37:58;;;;;;;10.37;5.47;;;11.40;99.90;;;;;;5006037;28;20497;-77
2023/03/30 03:40:23;;;;;;;8.18;5.10;;;11.50;99.90;;;;;;5007370;28;20404;-77
2023/03/30 03:42:49;;;;;;;8.43;5.30;;;11.50;99.90;;;;;;5005981;28;20905;-77
2023/03/30 03:45:14;;;;;;;9.60;4.80;;;11.50;99.90;;;;;;5007804;28;20428;-76
2023/03/30 03:47:40;;;;;;;9.40;4.50;;;11.60;99.90;;;;;;5006304;28;20530;-77
2023/03/30 03:50:08;;;;;;;6.90;3.97;;;11.70;99.90;;;;;;5006440;28;20409;-77
2023/03/30 03:52:35;;;;;;;9.52;4.50;;;11.70;99.90;;;;;;4988888;28;20420;-76
2023/03/30 03:55:02;;;;;;;9.50;4.20;;;11.70;99.90;;;;;;5006722;28;20409;-76
2023/03/30 03:57:27;;;;;;;8.05;4.20;;;11.70;99.90;;;;;;5007024;28;20405;-76
2023/03/30 03:59:55;;;;;;;12.40;4.43;;;11.70;99.90;;;;;;5007762;28;20784;-77
2023/03/30 04:02:21;;;;;;;9.18;4.72;;;11.70;99.90;;;;;;5006320;28;20446;-77
2023/03/30 04:04:47;;;;;;;10.68;4.55;;;11.70;99.90;;;;;;5006296;28;20416;-75
2023/03/30 04:07:12;;;;;;;8.30;4.30;;;11.70;99.90;;;;;;5004973;28;20416;-76
2023/03/30 04:09:38;;;;;;;10.82;4.53;;;11.70;99.90;;;;;;5005395;28;20409;-76
2023/03/30 04:12:04;;;;;;;9.50;4.50;;;11.70;99.90;;;;;;5006030;28;20412;-76
2023/03/30 04:14:29;;;;;;;8.35;4.05;;;11.60;99.90;;;;;;5005751;28;20405;-76
2023/03/30 04:16:58;;;;;;;9.07;4.10;;;11.70;99.90;;;;;;5006917;28;20405;-76
2023/03/30 04:19:30;;;;;;;11.57;4.40;;;11.70;99.90;;;;;;5006662;28;20409;-76
2023/03/30 04:21:57;;;;;;;10.65;3.90;;;11.70;99.90;;;;;;5005566;28;20441;-75
2023/03/30 04:24:24;;;;;;;8.88;4.13;;;11.70;99.90;;;;;;5007591;28;21210;-76
2023/03/30 04:26:50;;;;;;;8.57;3.78;;;11.70;99.90;;;;;;5006669;28;20485;-76
2023/03/30 04:29:16;;;;;;;8.17;3.77;;;11.80;99.90;;;;;;5007327;28;20455;-76
2023/03/30 04:31:45;;;;;;;6.90;3.60;;;11.80;99.90;;;;;;5014541;28;20392;-76
2023/03/30 04:34:15;;;;;;;9.98;3.65;;;11.70;99.90;;;;;;5009412;28;20409;-76
2023/03/30 04:36:42;;;;;;;6.68;3.45;;;11.70;99.90;;;;;;5006061;28;20409;-76
2023/03/30 04:39:10;;;;;;;8.97;3.20;;;11.70;99.90;;;;;;5006617;28;20414;-76
2023/03/30 04:41:36;;;;;;;8.13;3.38;;;11.70;99.90;;;;;;5006273;28;20536;-76
2023/03/30 04:44:08;;;;;;;9.20;3.33;;;11.70;99.90;;;;;;5007766;28;20739;-76
2023/03/30 04:46:34;;;;;;;8.45;3.20;;;11.70;99.90;;;;;;5005519;28;20510;-76
2023/03/30 04:49:00;;;;;;;8.80;3.50;;;11.70;99.90;;;;;;5005854;28;20432;-76
2023/03/30 04:51:27;;;;;;;7.43;3.10;;;11.70;99.90;;;;;;5007197;28;20408;-76
2023/03/30 04:53:53;;;;;;;8.25;2.92;;;11.70;99.90;;;;;;5006917;28;20405;-77
2023/03/30 04:56:18;;;;;;;9.10;3.33;;;11.70;99.90;;;;;;4989769;28;20761;-76
2023/03/30 04:58:44;;;;;;;8.57;2.90;;;11.70;99.90;;;;;;5008907;28;20431;-77
2023/03/30 05:01:10;;;;;;;8.03;3.30;;;11.70;99.90;;;;;;5023880;28;20400;-77
2023/03/30 05:03:35;;;;;;;8.93;3.50;;;11.70;99.90;;;;;;5005051;28;20412;-77
2023/03/30 05:06:01;;;;;;;9.13;3.50;;;11.70;99.90;;;;;;5006439;28;20490;-77
2023/03/30 05:08:27;;;;;;;7.18;3.40;;;11.70;99.90;;;;;;5021045;28;20453;-77
2023/03/30 05:10:53;;;;;;;9.13;3.38;;;11.70;99.90;;;;;;5023777;28;20399;-77
2023/03/30 05:13:18;;;;;;;9.70;3.80;;;11.70;99.90;;;;;;5018103;28;20405;-77
2023/03/30 05:15:44;;;;;;;8.43;3.40;;;11.70;99.90;;;;;;5013347;28;20408;-77
2023/03/30 05:18:10;;;;;;;8.05;3.90;;;11.70;99.90;;;;;;5023636;28;20411;-77
2023/03/30 05:20:36;;;;;;;7.87;3.37;;;11.70;99.90;;;;;;5024366;28;20399;-77
2023/03/30 05:23:01;;;;;;;9.68;3.10;;;11.70;99.90;;;;;;5007258;28;20460;-77
2023/03/30 05:25:27;;;;;;;7.47;2.93;;;11.70;99.90;;;;;;5005228;28;20457;-77
2023/03/30 05:27:52;;;;;;;10.00;3.17;;;11.70;99.90;;;;;;5007826;28;20416;-77
2023/03/30 05:30:18;;;;;;;8.43;3.13;;;11.70;99.90;;;;;;5009597;28;21137;-77
2023/03/30 05:32:44;;;;;;;8.82;3.28;;;11.70;99.90;;;;;;5010692;28;20498;-77
2023/03/30 05:35:10;;;;;;;7.40;2.90;;;11.70;99.90;;;;;;5010973;28;20461;-77
2023/03/30 05:37:36;;;;;;;6.70;2.72;;;11.80;99.90;;;;;;5008228;28;20411;-77
2023/03/30 05:40:07;;;;;;;8.80;2.85;;;11.70;99.90;;;;;;5008940;28;20427;-77
2023/03/30 05:42:32;;;;;;;7.95;2.75;;;11.70;99.90;;;;;;5005149;28;20955;-77
2023/03/30 05:44:58;;;;;;;7.13;2.50;;;11.80;99.90;;;;;;5004352;28;20460;-77
2023/03/30 05:47:23;;;;;;;7.97;2.67;;;11.80;99.90;;;;;;5005224;28;20434;-77
2023/03/30 05:49:49;;;;;;;6.78;2.90;;;11.80;99.90;;;;;;5004087;28;20481;-77
2023/03/30 05:52:15;;;;;;;8.48;2.88;;;11.90;99.90;;;;;;5005159;28;20488;-77
2023/03/30 05:54:41;;;;;;;7.57;2.53;;;11.90;99.90;;;;;;5006942;28;20907;-77
2023/03/30 05:57:06;;;;;;;10.98;3.40;;;11.90;99.90;;;;;;5007003;28;20413;-77
2023/03/30 05:59:32;;;;;;;9.30;2.83;;;11.90;99.90;;;;;;5052269;28;20412;-77
2023/03/30 06:01:59;;;;;;;7.20;2.78;;;11.90;99.90;;;;;;5009634;28;20585;-77
2023/03/30 06:04:26;;;;;;;8.00;3.13;;;11.90;99.90;;;;;;5009798;28;20409;-75
2023/03/30 06:06:52;;;;;;;10.50;3.22;;;11.90;99.90;;;;;;5013168;28;20476;-76
2023/03/30 06:09:18;;;;;;;7.65;2.97;;;11.90;99.90;;;;;;5006489;28;20836;-76
2023/03/30 06:11:44;;;;;;;9.10;3.20;;;11.90;99.90;;;;;;4990581;28;20444;-76
2023/03/30 06:14:09;;;;;;;12.55;3.30;;;11.90;99.90;;;;;;5008107;28;20443;-76
2023/03/30 06:16:35;;;;;;;12.27;3.47;;;11.90;99.90;;;;;;5007941;28;20427;-76
2023/03/30 06:19:01;;;;;;;10.50;3.28;;;11.90;99.90;;;;;;5007695;28;20443;-76
2023/03/30 06:21:28;;;;;;;9.50;3.33;;;11.90;99.90;;;;;;5006214;28;21679;-76
2023/03/30 06:23:53;;;;;;;10.18;3.20;;;11.90;99.90;;;;;;5008090;28;20415;-76
2023/03/30 06:26:19;;;;;;;10.07;3.50;;;11.90;99.90;;;;;;5007728;28;20408;-76
2023/03/30 06:28:45;;;;;;;11.57;3.80;;;12.00;99.90;;;;;;5008204;28;20409;-76
2023/03/30 06:31:11;;;;;;;10.40;3.30;;;12.00;99.90;;;;;;5007638;28;20935;-77
2023/03/30 06:33:37;;;;;;;7.82;3.13;;;12.00;99.90;;;;;;5005944;28;20416;-77
2023/03/30 06:36:03;;;;;;;10.35;4.22;;;12.10;99.90;;;;;;4989540;28;20501;-77
2023/03/30 06:38:28;;;;;;;9.20;3.20;;;12.10;99.90;;;;;;5006609;28;20513;-76
2023/03/30 06:40:54;;;;;;;10.70;3.57;;;12.10;99.90;;;;;;5023143;28;20852;-76
2023/03/30 06:43:25;;;;;;;10.10;3.35;;;12.20;99.90;;;;;;5006133;28;20975;-76
2023/03/30 06:45:55;;;;;;;9.98;3.55;;;12.20;99.90;;;;;;5006066;28;20478;-77
2023/03/30 06:48:22;;;;;;;8.95;3.35;;;12.30;99.90;;;;;;5007321;28;20440;-75
2023/03/30 06:50:53;;;;;;;8.70;3.50;;;12.30;99.90;;;;;;5005683;28;20991;-76
2023/03/30 06:53:20;;;;;;;8.13;3.80;;;12.30;99.90;;;;;;5008186;28;20481;-75
2023/03/30 06:55:54;;;;;;;10.97;3.50;;;12.30;99.90;;;;;;5009042;28;20435;-76
2023/03/30 06:58:20;;;;;;;9.43;3.63;;;12.30;99.90;;;;;;5005576;28;20424;-76
2023/03/30 07:00:46;;;;;;;10.50;3.87;;;12.30;99.90;;;;;;5005245;28;20413;-76
2023/03/30 07:03:12;;;;;;;7.67;3.47;;;12.30;99.90;;;;;;5005794;28;20478;-76
2023/03/30 07:05:37;;;;;;;8.65;3.72;;;12.40;99.90;;;;;;5007874;28;20418;-76
2023/03/30 07:08:04;;;;;;;8.53;3.60;;;12.40;99.90;;;;;;5005912;28;20405;-76
2023/03/30 07:10:30;;;;;;;7.87;3.33;;;12.40;99.90;;;;;;5004879;28;20495;-76
2023/03/30 07:12:56;;;;;;;10.18;3.45;;;12.50;99.90;;;;;;5006973;28;20459;-77
2023/03/30 07:15:23;;;;;;;8.70;3.40;;;12.50;99.90;;;;;;5011497;28;20905;-76
2023/03/30 07:17:49;;;;;;;9.63;3.43;;;12.50;99.90;;;;;;5007012;28;20409;-76
2023/03/30 07:20:15;;;;;;;8.20;3.10;;;12.60;99.90;;;;;;5004031;28;20405;-76
2023/03/30 07:22:41;;;;;;;9.80;3.60;;;12.70;99.90;;;;;;5057957;28;20428;-76
2023/03/30 07:25:08;;;;;;;7.55;2.83;;;12.80;99.90;;;;;;4991569;28;20413;-76
2023/03/30 07:27:37;;;;;;;8.40;2.95;;;12.80;99.90;;;;;;5009548;28;20428;-76
2023/03/30 07:30:04;;;;;;;8.40;2.95;;;12.80;99.90;;;;;;5010753;28;20889;-76
2023/03/30 07:32:30;;;;;;;9.10;2.65;;;12.90;99.90;;;;;;5009012;28;20836;-76
2023/03/30 07:34:56;;;;;;;8.82;2.97;;;12.80;99.90;;;;;;5009715;28;20440;-76
2023/03/30 07:37:23;;;;;;;8.68;2.70;;;12.80;99.90;;;;;;5008606;28;20650;-76
2023/03/30 07:39:49;;;;;;;10.27;2.40;;;12.80;99.90;;;;;;5041443;28;20455;-76
2023/03/30 07:42:15;;;;;;;9.45;2.58;;;12.70;99.90;;;;;;5005617;28;20901;-76
2023/03/30 07:44:41;;;;;;;10.93;3.05;;;12.80;99.90;;;;;;5005263;28;20413;-76
2023/03/30 07:47:07;;;;;;;9.57;2.35;;;12.70;99.90;;;;;;5004894;28;20420;-76
2023/03/30 07:49:33;;;;;;;9.82;2.75;;;12.80;99.90;;;;;;5006432;28;20408;-76
2023/03/30 07:51:58;;;;;;;14.30;3.13;;;12.80;99.90;;;;;;5006873;28;20405;-76
2023/03/30 07:54:24;;;;;;;12.63;2.63;;;12.80;99.90;;;;;;4989316;28;20417;-76
2023/03/30 07:56:51;;;;;;;14.53;2.57;;;12.80;99.90;;;;;;5006188;28;20780;-76
2023/03/30 07:59:21;;;;;;;15.13;2.75;;;12.80;99.90;;;;;;5011455;28;21000;-77
2023/03/30 08:01:49;;;;;;;14.45;2.40;;;12.80;99.90;;;;;;5018150;28;20924;-76
2023/03/30 08:04:16;;;;;;;12.73;2.88;;;12.70;99.90;;;;;;5004478;28;20411;-77
2023/03/30 08:06:41;;;;;;;14.03;2.90;;;12.60;99.90;;;;;;5016630;28;20425;-77
2023/03/30 08:09:07;;;;;;;14.55;2.45;;;12.60;99.90;;;;;;5020540;28;20415;-77
2023/03/30 08:11:34;;;;;;;14.63;2.60;;;12.50;99.90;;;;;;5018513;28;20420;-77
2023/03/30 08:14:01;;;;;;;15.90;3.50;;;12.40;99.90;;;;;;5021586;28;20407;-76
2023/03/30 08:16:26;;;;;;;13.18;3.30;;;12.30;99.90;;;;;;5019657;28;20776;-77
2023/03/30 08:18:53;;;;;;;16.30;2.80;;;12.30;99.90;;;;;;5022238;28;20407;-76
2023/03/30 08:21:21;;;;;;;13.43;3.33;;;12.30;99.90;;;;;;5019397;28;20409;-77
2023/03/30 08:23:46;;;;;;;14.68;3.08;;;12.20;99.90;;;;;;5023153;28;20906;-77
2023/03/30 08:26:12;;;;;;;15.73;3.03;;;12.20;99.90;;;;;;5021078;28;20470;-77
2023/03/30 08:28:38;;;;;;;15.97;3.53;;;12.20;99.90;;;;;;5022578;28;20415;-76
2023/03/30 08:31:04;;;;;;;17.02;3.20;;;12.20;99.90;;;;;;5018068;28;20432;-77
2023/03/30 08:33:31;;;;;;;17.02;3.28;;;12.10;99.90;;;;;;5004812;28;20420;-76
2023/03/30 08:35:56;;;;;;;22.38;3.60;;;12.10;99.90;;;;;;5019177;28;20405;-76
2023/03/30 08:38:22;;;;;;;16.23;3.63;;;12.00;99.90;;;;;;5023279;28;20945;-76
2023/03/30 08:40:49;;;;;;;18.90;3.83;;;12.00;99.90;;;;;;5017974;28;20454;-77
2023/03/30 08:43:31;;;;;;;17.50;3.50;;;11.90;99.90;;;;;;5012980;28;20446;-76
2023/03/30 08:46:00;;;;;;;18.50;3.95;;;11.90;99.90;;;;;;5008880;28;20443;-76
2023/03/30 08:48:29;;;;;;;16.10;3.42;;;11.90;99.90;;;;;;5023270;28;20445;-76
2023/03/30 08:51:04;;;;;;;17.58;4.05;;;12.00;99.90;;;;;;5021174;28;20419;-76
2023/03/30 08:53:32;;;;;;;18.17;3.38;;;12.00;99.90;;;;;;5020612;28;20747;-76
2023/03/30 08:56:06;;;;;;;19.58;4.40;;;12.00;99.90;;;;;;5012593;28;20418;-77
2023/03/30 08:59:09;;;;;;;19.00;3.95;;;12.00;99.90;;;;;;5008333;28;20417;-76
2023/03/30 09:01:44;;;;;;;17.77;4.38;;;11.90;99.90;;;;;;5004833;28;20416;-76
2023/03/30 09:04:22;;;;;;;18.20;3.88;;;11.80;99.90;;;;;;4994884;28;20474;-76
2023/03/30 09:07:06;;;;;;;21.27;4.53;;;11.70;99.90;;;;;;5004166;28;20417;-77
2023/03/30 09:09:37;;;;;;;20.98;4.30;;;11.70;99.90;;;;;;5005811;28;20409;-76
2023/03/30 09:12:27;;;;;;;18.85;3.38;;;11.60;99.90;;;;;;5006091;28;20485;-76
2023/03/30 09:15:16;;;;;;;18.88;4.10;;;11.60;99.90;;;;;;5005288;28;20490;-76
2023/03/30 09:17:49;;;;;;;19.67;4.25;;;11.70;99.90;;;;;;5005250;28;20415;-76
2023/03/30 09:20:22;;;;;;;21.75;4.20;;;11.70;99.90;;;;;;4993414;28;20409;-76
2023/03/30 09:22:49;;;;;;;20.38;4.18;;;11.70;99.90;;;;;;5002804;28;20948;-76
2023/03/30 09:25:22;;;;;;;17.25;3.90;;;11.80;99.90;;;;;;5010808;28;20407;-76
2023/03/30 09:28:07;;;;;;;18.77;3.65;;;11.90;99.90;;;;;;5018183;28;20436;-77
2023/03/30 09:30:50;;;;;;;21.98;4.30;;;12.10;99.90;;;;;;5021909;28;20484;-77
2023/03/30 09:33:53;;;;;;;20.05;4.07;;;12.30;99.90;;;;;;4980306;28;20448;-78
2023/03/30 09:36:32;;;;;;;19.98;4.03;;;12.50;99.90;;;;;;5023988;28;20422;-77
2023/03/30 09:38:58;;;;;;;22.92;4.65;;;12.80;99.90;;;;;;5021821;28;20440;-77
2023/03/30 09:41:40;;;;;;;17.57;3.63;;;13.10;99.90;;;;;;5024314;28;20442;-78
2023/03/30 09:44:19;;;;;;;17.77;4.30;;;13.40;99.90;;;;;;5021748;28;20778;-77
2023/03/30 09:46:45;;;;;;;17.10;3.83;;;13.50;99.90;;;;;;5024249;28;20928;-78
2023/03/30 09:49:14;;;;;;;20.23;3.97;;;13.50;99.90;;;;;;5023322;28;20400;-77
2023/03/30 09:51:53;;;;;;;19.33;3.90;;;13.50;99.90;;;;;;5024454;28;20436;-78
2023/03/30 09:54:20;;;;;;;16.25;3.47;;;13.70;99.90;;;;;;5005480;28;20399;-78
2023/03/30 09:56:50;;;;;;;18.15;3.30;;;13.90;99.90;;;;;;5023917;28;21066;-78
2023/03/30 09:59:31;;;;;;;17.08;3.97;;;14.10;99.90;;;;;;5016405;28;20414;-78
2023/03/30 10:02:17;;;;;;;18.38;3.45;;;14.80;99.90;;;;;;5022704;28;20439;-77
2023/03/30 10:04:55;;;;;;;13.70;2.55;;;15.00;99.90;;;;;;5024624;28;20430;-78
2023/03/30 10:07:40;;;;;;;13.63;2.58;;;15.00;99.90;;;;;;5004326;28;20411;-78
2023/03/30 10:10:35;;;;;;;12.43;2.50;;;14.90;99.90;;;;;;5023529;28;20419;-77
2023/03/30 10:13:31;;;;;;;14.70;2.80;;;14.60;99.90;;;;;;5033561;28;20428;-78
2023/03/30 10:16:05;;;;;;;12.52;2.63;;;14.30;99.90;;;;;;5007856;28;20774;-77
2023/03/30 10:18:43;;;;;;;14.80;2.70;;;14.10;99.90;;;;;;5025708;28;21019;-78
2023/03/30 10:21:29;;;;;;;13.30;2.30;;;13.90;99.90;;;;;;5027363;28;20417;-77
2023/03/30 10:24:07;;;;;;;15.13;2.28;;;13.70;99.90;;;;;;5026817;28;20468;-78
2023/03/30 10:26:36;;;;;;;14.65;2.65;;;13.60;99.90;;;;;;5019702;28;20483;-78
2023/03/30 10:29:17;;;;;;;16.45;2.95;;;13.50;99.90;;;;;;5007958;28;20417;-77
2023/03/30 10:31:48;;;;;;;11.15;2.20;;;13.40;99.90;;;;;;4996244;28;20413;-78
2023/03/30 10:34:33;;;;;;;10.50;2.08;;;13.20;99.90;;;;;;5007099;28;20429;-78
2023/03/30 10:36:59;;;;;;;10.75;2.17;;;13.20;99.90;;;;;;5007758;28;20900;-78
2023/03/30 10:39:29;;;;;;;9.95;1.80;;;13.30;99.90;;;;;;5006532;28;20406;-77
2023/03/30 10:41:55;;;;;;;9.87;1.87;;;13.30;99.90;;;;;;5008009;28;20826;-78
2023/03/30 10:44:29;;;;;;;12.50;2.10;;;13.40;99.90;;;;;;5071226;28;20496;-77
2023/03/30 10:47:08;;;;;;;10.98;2.35;;;13.50;99.90;;;;;;5007103;28;20429;-77
2023/03/30 10:49:55;;;;;;;13.55;2.05;;;13.60;99.90;;;;;;5007869;28;20903;-77
2023/03/30 10:52:21;;;;;;;12.25;2.22;;;13.60;99.90;;;;;;5008923;28;20410;-78
2023/03/30 10:54:55;;;;;;;9.20;2.07;;;13.60;99.90;;;;;;5008655;28;20405;-77
2023/03/30 10:57:28;;;;;;;10.48;2.17;;;13.60;99.90;;;;;;5008363;28;20815;-78
2023/03/30 11:00:08;;;;;;;12.35;1.83;;;13.60;99.90;;;;;;5006865;28;21074;-78
2023/03/30 11:02:53;;;;;;;10.32;1.98;;;13.60;99.90;;;;;;5007555;28;20468;-77
2023/03/30 11:05:32;;;;;;;13.25;2.05;;;13.60;99.90;;;;;;5012741;28;20412;-78
2023/03/30 11:07:58;;;;;;;14.07;2.60;;;13.50;99.90;;;;;;5010180;28;20417;-78
2023/03/30 11:10:39;;;;;;;13.07;2.28;;;13.70;99.90;;;;;;5011468;28;20425;-77
2023/03/30 11:13:20;;;;;;;16.10;3.63;;;13.70;99.90;;;;;;5008151;28;20436;-78
2023/03/30 11:15:51;;;;;;;13.88;2.42;;;13.70;99.90;;;;;;5006017;28;20486;-77
2023/03/30 11:18:27;;;;;;;13.95;2.67;;;13.70;99.90;;;;;;5013982;28;20834;-78
2023/03/30 11:21:05;;;;;;;14.67;2.53;;;13.70;99.90;;;;;;5003642;28;20907;-77
2023/03/30 11:23:55;;;;;;;15.82;3.15;;;13.70;99.90;;;;;;5001451;28;20494;-78
2023/03/30 11:26:33;;;;;;;15.00;2.90;;;13.70;99.90;;;;;;5020041;28;20443;-77
2023/03/30 11:29:08;;;;;;;13.77;2.80;;;13.70;99.90;;;;;;4992819;28;20967;-77
2023/03/30 11:31:43;;;;;;;18.08;3.47;;;13.70;99.90;;;;;;5010468;28;20413;-77
2023/03/30 11:34:37;;;;;;;17.48;3.33;;;13.70;99.90;;;;;;5011542;28;20496;-77
2023/03/30 11:37:23;;;;;;;18.48;3.47;;;13.70;99.90;;;;;;5010375;28;20424;-77
2023/03/30 11:40:12;;;;;;;15.40;2.92;;;13.60;99.90;;;;;;5009716;28;20417;-77
2023/03/30 11:42:38;;;;;;;18.15;2.90;;;13.60;99.90;;;;;;5008659;28;20439;-78
2023/03/30 11:45:16;;;;;;;20.77;3.00;;;13.70;99.90;;;;;;5009889;28;20461;-77
2023/03/30 11:47:54;;;;;;;19.63;3.67;;;13.70;99.90;;;;;;5013947;28;20787;-78
2023/03/30 11:50:42;;;;;;;18.60;3.83;;;13.70;99.90;;;;;;5010298;28;20421;-78
2023/03/30 11:53:31;;;;;;;21.10;3.90;;;13.70;99.90;;;;;;5009485;28;20417;-77
2023/03/30 11:56:15;;;;;;;17.57;3.80;;;13.60;99.90;;;;;;5006258;28;20400;-78
2023/03/30 11:59:05;;;;;;;17.92;2.92;;;13.60;99.90;;;;;;5008062;28;20419;-78
2023/03/30 12:01:46;;;;;;;17.60;3.80;;;13.60;99.90;;;;;;5014930;28;20432;-78
2023/03/30 12:04:15;;;;;;;16.90;3.58;;;13.70;99.90;;;;;;5000013;28;20421;-78
2023/03/30 12:06:59;;;;;;;16.63;3.03;;;13.80;99.90;;;;;;5006053;28;20508;-78
2023/03/30 12:09:34;;;;;;;15.55;2.85;;;14.00;99.90;;;;;;5004929;28;20433;-78
2023/03/30 12:12:10;;;;;;;17.30;3.83;;;14.00;99.90;;;;;;5006829;28;21005;-78
2023/03/30 12:15:01;;;;;;;15.00;2.75;;;14.10;99.90;;;;;;5004919;28;20473;-77
2023/03/30 12:17:34;;;;;;;16.02;3.13;;;14.10;99.90;;;;;;5004971;28;20442;-77
2023/03/30 12:20:05;;;;;;;15.82;3.30;;;14.10;99.90;;;;;;5005651;28;20421;-76
2023/03/30 12:23:00;;;;;;;16.23;3.40;;;14.30;99.90;;;;;;5006028;28;20436;-76
2023/03/30 12:26:03;;;;;;;15.02;2.55;;;14.60;99.90;;;;;;4999744;28;20466;-77
2023/03/30 12:28:58;;;;;;;12.98;2.25;;;14.70;99.90;;;;;;4996266;28;20421;-77
2023/03/30 12:31:57;;;;;;;15.95;2.83;;;14.80;99.90;;;;;;5014572;28;20425;-77
2023/03/30 12:34:26;;;;;;;16.37;2.90;;;15.00;99.90;;;;;;5018547;28;20417;-77
2023/03/30 12:37:11;;;;;;;16.58;3.17;;;15.10;99.90;;;;;;5023224;28;20957;-77
2023/03/30 12:40:13;;;;;;;14.57;3.07;;;15.10;99.90;;;;;;5002125;28;20438;-77
2023/03/30 12:42:45;;;;;;;21.05;3.47;;;15.00;99.90;;;;;;5022225;28;20569;-76
2023/03/30 12:45:26;;;;;;;16.15;2.80;;;15.00;99.90;;;;;;5011131;28;20424;-77
2023/03/30 12:48:35;;;;;;;13.97;2.90;;;14.80;99.90;;;;;;5003030;28;20411;-77
2023/03/30 12:51:12;;;;;;;18.42;3.10;;;14.70;99.90;;;;;;5022862;28;20431;-77
2023/03/30 12:53:50;;;;;;;16.23;2.88;;;14.60;99.90;;;;;;5022079;28;20508;-76
2023/03/30 12:56:45;;;;;;;16.23;3.70;;;14.50;99.90;;;;;;5023868;28;20411;-76
2023/03/30 12:59:39;;;;;;;17.58;3.40;;;14.40;99.90;;;;;;5002735;28;20460;-75
2023/03/30 13:02:35;;;;;;;16.30;3.08;;;14.40;99.90;;;;;;5006347;28;20812;-76
2023/03/30 13:05:01;;;;;;;14.88;2.58;;;14.20;99.90;;;;;;5000909;28;21165;-76